Time;durP1;ratioP1;P1;durP2;ratioP2;P2;SDS_P1;SDS_P2;PMS_P1;PMS_P2;Temp;Humidity;BMP_temperature;BMP_pressure;BME280_temperature;BME280_humidity;BME280_pressure;Samples;Min_cycle;Max_cycle;Signal;HPM_P1;HPM_P2
2023/07/06 00:00:36;;;;;;;11.05;2.47;;;;;;;-142.75;100.00;76440.38;5041979;28;20682;-64
2023/07/06 00:03:03;;;;;;;11.98;2.45;;;;;;;-142.75;100.00;76436.44;5042139;28;20036;-64
2023/07/06 00:05:29;;;;;;;6.85;1.98;;;;;;;-142.75;100.00;76460.06;5041956;28;20052;-64
2023/07/06 00:07:56;;;;;;;8.10;1.90;;;;;;;-142.75;100.00;76444.31;5041962;28;20095;-64
2023/07/06 00:10:22;;;;;;;5.63;1.65;;;;;;;-142.75;100.00;76456.13;5044093;28;20532;-64
2023/07/06 00:12:47;;;;;;;6.18;2.00;;;;;;;-142.75;100.00;76467.94;5041218;28;20036;-64
2023/07/06 00:15:13;;;;;;;6.15;1.83;;;;;;;-142.75;100.00;76464.00;5041081;28;20830;-64
2023/07/06 00:17:38;;;;;;;7.32;2.25;;;;;;;-142.75;100.00;76467.94;5041926;28;20091;-65
2023/07/06 00:20:07;;;;;;;11.60;2.10;;;;;;;-142.75;100.00;76458.09;5042353;28;20057;-64
2023/07/06 00:22:36;;;;;;;9.77;1.83;;;;;;;-142.75;100.00;76467.94;5041630;28;20044;-64
2023/07/06 00:25:01;;;;;;;7.30;2.28;;;;;;;-142.75;100.00;76471.88;5042078;28;20032;-63
2023/07/06 00:27:28;;;;;;;6.30;1.67;;;;;;;-142.75;100.00;76467.94;5042622;28;20044;-64
2023/07/06 00:30:06;;;;;;;5.43;2.00;;;;;;;-142.75;100.00;76454.16;5040664;28;20100;-64
2023/07/06 00:32:32;;;;;;;6.38;1.73;;;;;;;-142.75;100.00;76471.88;5040784;28;20032;-64
2023/07/06 00:34:59;;;;;;;10.48;2.42;;;;;;;-142.75;100.00;76471.88;5041610;28;20063;-64
2023/07/06 00:37:25;;;;;;;14.65;2.05;;;;;;;-142.75;100.00;76465.97;5048369;28;20030;-64
2023/07/06 00:39:51;;;;;;;5.00;2.08;;;;;;;-142.75;100.00;76467.94;5041740;28;20551;-65
2023/07/06 00:42:19;;;;;;;5.70;2.13;;;;;;;-142.75;100.00;76454.16;5042376;28;20029;-64
2023/07/06 00:44:58;;;;;;;4.82;1.67;;;;;;;-142.75;100.00;76454.16;5045666;28;20388;-64
2023/07/06 00:47:47;;;;;;;8.50;1.65;;;;;;;-142.75;100.00;76471.88;5045618;28;20020;-64
2023/07/06 00:50:16;;;;;;;6.80;1.63;;;;;;;-142.75;100.00;76483.69;5051417;28;20440;-64
2023/07/06 00:52:51;;;;;;;6.88;1.73;;;;;;;-142.75;100.00;76499.44;5047187;28;20025;-63
2023/07/06 00:55:19;;;;;;;6.03;1.73;;;;;;;-142.75;100.00;76491.56;5050130;28;20077;-64
2023/07/06 00:57:51;;;;;;;6.35;1.50;;;;;;;-142.75;100.00;76483.69;5046372;28;20048;-64
2023/07/06 01:00:21;;;;;;;5.07;1.30;;;;;;;-142.75;100.00;76485.66;5045742;28;20173;-65
2023/07/06 01:02:51;;;;;;;2.72;1.23;;;;;;;-142.75;100.00;76517.16;5045582;28;20075;-65
2023/07/06 01:05:18;;;;;;;3.28;1.20;;;;;;;-142.75;100.00;76505.34;5044503;28;20037;-64
2023/07/06 01:07:45;;;;;;;6.05;1.50;;;;;;;-142.75;100.00;76503.38;5045545;28;20108;-65
2023/07/06 01:10:13;;;;;;;7.43;1.70;;;;;;;-142.75;100.00;76499.44;5045279;28;20020;-63
2023/07/06 01:12:38;;;;;;;4.85;1.92;;;;;;;-142.75;100.00;76499.44;5044810;28;20384;-63
2023/07/06 01:15:06;;;;;;;8.13;1.58;;;;;;;-142.75;100.00;76511.25;5049603;28;20029;-64
2023/07/06 01:18:00;;;;;;;5.20;1.40;;;;;;;-142.75;100.00;76513.22;5053546;28;20120;-64
2023/07/06 01:20:32;;;;;;;7.80;1.95;;;;;;;-142.75;100.00;76503.38;5042727;28;20065;-64
2023/07/06 01:23:01;;;;;;;7.65;1.58;;;;;;;-142.75;100.00;76501.41;5047397;28;20037;-64
2023/07/06 01:26:10;;;;;;;5.32;1.33;;;;;;;-142.75;100.00;76503.38;5051053;28;20051;-64
2023/07/06 01:29:05;;;;;;;7.85;1.67;;;;;;;-142.75;100.00;76507.31;5045227;28;20293;-64
2023/07/06 01:31:55;;;;;;;9.15;2.05;;;;;;;-142.75;100.00;76511.25;5053156;28;20055;-64
2023/07/06 01:34:41;;;;;;;7.32;2.10;;;;;;;-142.75;100.00;76517.16;5045147;28;20035;-63
2023/07/06 01:37:25;;;;;;;11.40;1.63;;;;;;;-142.75;100.00;76509.28;5044876;28;20654;-65
2023/07/06 01:39:51;;;;;;;8.20;2.10;;;;;;;-142.75;100.00;76509.28;5044638;28;20372;-62
2023/07/06 01:42:30;;;;;;;9.80;2.00;;;;;;;-142.75;100.00;76515.19;5044902;28;20021;-64
2023/07/06 01:45:04;;;;;;;8.63;2.63;;;;;;;-142.75;100.00;76495.50;5050532;28;20557;-64
2023/07/06 01:47:32;;;;;;;5.78;1.90;;;;;;;-142.75;100.00;76499.44;5047704;28;20048;-63
2023/07/06 01:50:01;;;;;;;8.50;2.10;;;;;;;-142.75;100.00;76505.34;5044414;28;20151;-64
2023/07/06 01:52:45;;;;;;;7.47;1.95;;;;;;;-142.75;100.00;76495.50;5044625;28;20450;-64
2023/07/06 01:55:30;;;;;;;8.02;1.95;;;;;;;-142.75;100.00;76491.56;5043566;28;20364;-66
2023/07/06 01:58:17;;;;;;;9.65;2.10;;;;;;;-142.75;100.00;76495.50;5045551;28;20518;-64
2023/07/06 02:00:48;;;;;;;8.68;2.17;;;;;;;-142.75;100.00;76507.31;5044753;28;20017;-64
2023/07/06 02:03:15;;;;;;;7.78;2.42;;;;;;;-142.75;100.00;76491.56;5044320;28;20110;-63
2023/07/06 02:05:41;;;;;;;9.77;2.35;;;;;;;-142.75;100.00;76481.72;5044264;28;20020;-64
2023/07/06 02:08:11;;;;;;;7.20;2.08;;;;;;;-142.75;100.00;76471.88;5044094;28;20086;-64
2023/07/06 02:10:37;;;;;;;9.57;2.05;;;;;;;-142.75;100.00;76493.53;5043829;28;20020;-64
2023/07/06 02:13:03;;;;;;;12.07;2.75;;;;;;;-142.75;100.00;76479.75;5044006;28;20106;-64
2023/07/06 02:15:30;;;;;;;9.40;3.13;;;;;;;-142.75;100.00;76467.94;5044123;28;20100;-64
2023/07/06 02:18:27;;;;;;;5.35;2.05;;;;;;;-142.75;100.00;76434.47;5759194;23;21122;-62
2023/07/06 02:20:57;;;;;;;11.57;2.40;;;;;;;-142.75;100.00;76452.19;4976203;28;20039;-61
2023/07/06 02:23:23;;;;;;;11.57;2.45;;;;;;;-142.75;100.00;76456.13;5007132;28;20550;-61
2023/07/06 02:25:48;;;;;;;9.93;2.55;;;;;;;-142.75;100.00;76454.16;5004229;28;20033;-63
2023/07/06 02:28:14;;;;;;;9.07;2.20;;;;;;;-142.75;100.00;76446.28;5004561;28;20432;-61
2023/07/06 02:30:39;;;;;;;8.77;2.38;;;;;;;-142.75;100.00;76446.28;4997535;28;20447;-61
2023/07/06 02:33:04;;;;;;;8.50;2.40;;;;;;;-142.75;100.00;76452.19;5001996;28;20040;-62
2023/07/06 02:35:32;;;;;;;5.85;2.17;;;;;;;-142.75;100.00;76448.25;5004025;28;20032;-61
2023/07/06 02:37:58;;;;;;;10.18;2.10;;;;;;;-142.75;100.00;76440.38;5003908;28;20060;-62
2023/07/06 02:40:23;;;;;;;8.07;2.08;;;;;;;-142.75;100.00;76446.28;5003950;28;20053;-61
2023/07/06 02:42:49;;;;;;;10.75;2.20;;;;;;;-142.75;100.00;76448.25;5003763;28;20026;-60
2023/07/06 02:45:14;;;;;;;7.63;2.40;;;;;;;-142.75;100.00;76456.13;4998172;28;20053;-62
2023/07/06 02:47:41;;;;;;;8.18;2.92;;;;;;;-142.75;100.00;76448.25;4984167;28;20106;-62
2023/07/06 02:50:11;;;;;;;10.05;2.00;;;;;;;-142.75;100.00;76440.38;4984398;28;20032;-61
2023/07/06 02:52:37;;;;;;;7.63;1.92;;;;;;;-142.75;100.00;76442.34;4984538;28;20039;-62
2023/07/06 02:55:03;;;;;;;8.85;2.22;;;;;;;-142.75;100.00;76440.38;4984441;28;20037;-61
2023/07/06 02:57:28;;;;;;;9.75;2.00;;;;;;;-142.75;100.00;76440.38;4984489;28;20030;-62
2023/07/06 02:59:56;;;;;;;9.75;2.78;;;;;;;-142.75;100.00;76444.31;4984051;28;20062;-61
2023/07/06 03:02:21;;;;;;;12.18;2.67;;;;;;;-142.75;100.00;76452.19;4984028;28;20510;-61
2023/07/06 03:04:47;;;;;;;13.43;2.35;;;;;;;-142.75;100.00;76460.06;4983680;28;20094;-62
2023/07/06 03:07:13;;;;;;;7.10;2.00;;;;;;;-142.75;100.00;76444.31;4984471;28;20078;-61
2023/07/06 03:09:39;;;;;;;8.35;2.33;;;;;;;-142.75;100.00;76448.25;4984050;28;20026;-62
2023/07/06 03:12:05;;;;;;;9.40;2.40;;;;;;;-142.75;100.00;76442.34;4984022;28;20118;-61
2023/07/06 03:14:32;;;;;;;11.20;2.50;;;;;;;-142.75;100.00;76462.03;4984080;28;20062;-62
2023/07/06 03:16:58;;;;;;;14.10;2.80;;;;;;;-142.75;100.00;76450.22;4984427;28;20034;-61
2023/07/06 03:19:23;;;;;;;10.73;2.85;;;;;;;-142.75;100.00;76440.38;4983440;28;20718;-62
2023/07/06 03:21:49;;;;;;;11.63;2.70;;;;;;;-142.75;100.00;76426.59;4983930;28;20481;-61
2023/07/06 03:24:15;;;;;;;10.98;2.65;;;;;;;-142.75;100.00;76436.44;4983525;28;20037;-60
2023/07/06 03:26:41;;;;;;;11.63;3.03;;;;;;;-142.75;100.00;76424.63;4983536;28;20022;-62
2023/07/06 03:29:09;;;;;;;10.35;3.13;;;;;;;-142.75;100.00;76422.66;4990237;28;20057;-62
2023/07/06 03:31:35;;;;;;;10.38;2.45;;;;;;;-142.75;100.00;76430.53;4983133;28;20091;-61
2023/07/06 03:34:02;;;;;;;13.27;2.88;;;;;;;-142.75;100.00;76428.56;4992295;28;20036;-61
2023/07/06 03:36:27;;;;;;;7.85;2.40;;;;;;;-142.75;100.00;76424.63;5002203;28;20026;-61
2023/07/06 03:38:53;;;;;;;13.38;3.53;;;;;;;-142.75;100.00;76456.13;5001552;28;20029;-61
2023/07/06 03:41:19;;;;;;;15.05;2.40;;;;;;;-142.75;100.00;76438.41;5002117;28;20397;-61
2023/07/06 03:43:45;;;;;;;12.07;3.03;;;;;;;-142.75;100.00;76432.50;4998687;28;20021;-61
2023/07/06 03:46:12;;;;;;;11.73;3.13;;;;;;;-142.75;100.00;76428.56;5002203;28;20029;-61
2023/07/06 03:48:40;;;;;;;15.68;3.72;;;;;;;-142.75;100.00;76440.38;5001471;28;20037;-61
2023/07/06 03:51:07;;;;;;;13.93;2.88;;;;;;;-142.75;100.00;76428.56;5001941;28;20606;-62
2023/07/06 03:53:35;;;;;;;13.20;3.85;;;;;;;-142.75;100.00;76438.41;4982791;28;20031;-61
2023/07/06 03:56:02;;;;;;;11.95;3.20;;;;;;;-142.75;100.00;76432.50;4982734;28;20030;-61
2023/07/06 03:58:28;;;;;;;11.90;2.80;;;;;;;-142.75;100.00;76424.63;4982984;28;20026;-61
2023/07/06 04:00:56;;;;;;;10.50;3.30;;;;;;;-142.75;100.00;76416.75;4982374;28;20026;-61
2023/07/06 04:03:21;;;;;;;11.52;2.75;;;;;;;-142.75;100.00;76424.63;4982514;28;20118;-61
2023/07/06 04:05:48;;;;;;;9.95;4.10;;;;;;;-142.75;100.00;76422.66;4982760;28;20105;-61
2023/07/06 04:08:19;;;;;;;8.80;2.90;;;;;;;-142.75;100.00;76410.84;4982633;28;20041;-62
2023/07/06 04:10:45;;;;;;;9.55;3.10;;;;;;;-142.75;100.00;76420.69;4997227;28;20030;-61
2023/07/06 04:13:11;;;;;;;12.23;4.03;;;;;;;-142.75;100.00;76412.81;4982338;28;20088;-61
2023/07/06 04:15:39;;;;;;;15.73;3.13;;;;;;;-142.75;100.00;76430.53;4982676;28;20558;-62
2023/07/06 04:18:05;;;;;;;12.60;3.53;;;;;;;-142.75;100.00;76422.66;4982487;28;20054;-61
2023/07/06 04:20:32;;;;;;;13.52;3.50;;;;;;;-142.75;100.00;76408.88;4981552;28;20406;-62
2023/07/06 04:22:58;;;;;;;12.75;3.75;;;;;;;-142.75;100.00;76412.81;4982662;28;20500;-62
2023/07/06 04:25:29;;;;;;;12.55;3.63;;;;;;;-142.75;100.00;76412.81;4982456;28;20034;-61
2023/07/06 04:27:55;;;;;;;14.52;3.65;;;;;;;-142.75;100.00;76432.50;4983003;28;20089;-62
2023/07/06 04:30:21;;;;;;;9.70;3.33;;;;;;;-142.75;100.00;76426.59;4982232;28;20113;-62
2023/07/06 04:32:50;;;;;;;9.68;3.45;;;;;;;-142.75;100.00;76416.75;4982525;28;20540;-62
2023/07/06 04:35:18;;;;;;;11.00;3.60;;;;;;;-142.75;100.00;76412.81;4982461;28;20034;-62
2023/07/06 04:37:48;;;;;;;18.40;4.20;;;;;;;-142.75;100.00;76428.56;4981915;28;20030;-64
2023/07/06 04:40:18;;;;;;;17.20;4.10;;;;;;;-142.75;100.00;76428.56;4982563;28;20030;-64
2023/07/06 04:42:46;;;;;;;12.73;4.90;;;;;;;-142.75;100.00;76448.25;4982230;28;20034;-64
2023/07/06 04:45:12;;;;;;;11.52;3.85;;;;;;;-142.75;100.00;76422.66;4981283;28;20038;-64
2023/07/06 04:47:39;;;;;;;16.90;4.53;;;;;;;-142.75;100.00;76408.88;4982172;28;20022;-64
2023/07/06 04:50:09;;;;;;;14.40;5.35;;;;;;;-142.75;100.00;76418.72;4981868;28;20036;-61
2023/07/06 04:52:37;;;;;;;11.63;4.78;;;;;;;-142.75;100.00;76430.53;4983344;28;20038;-62
2023/07/06 04:55:07;;;;;;;13.48;4.45;;;;;;;-142.75;100.00;76418.72;4981830;28;20050;-61
2023/07/06 04:57:32;;;;;;;14.07;4.50;;;;;;;-142.75;100.00;76414.78;4982469;28;20053;-61
2023/07/06 05:00:01;;;;;;;15.50;4.97;;;;;;;-142.75;100.00;76410.84;4982853;28;20030;-62
2023/07/06 05:02:30;;;;;;;17.20;4.68;;;;;;;-142.75;100.00;76397.06;4984288;28;20057;-62
2023/07/06 05:04:56;;;;;;;17.67;4.90;;;;;;;-142.75;100.00;76404.94;4985028;28;20034;-61
2023/07/06 05:07:22;;;;;;;20.15;5.50;;;;;;;-142.75;100.00;76418.72;4985537;28;20034;-62
2023/07/06 05:09:48;;;;;;;17.77;5.68;;;;;;;-142.75;100.00;76389.19;4985337;28;20076;-62
2023/07/06 05:12:14;;;;;;;14.10;5.18;;;;;;;-142.75;100.00;76397.06;4985672;28;20113;-62
2023/07/06 05:14:39;;;;;;;15.88;5.38;;;;;;;-142.75;100.00;76399.03;5004722;28;20121;-61
2023/07/06 05:17:05;;;;;;;19.83;5.78;;;;;;;-142.75;100.00;76397.06;5005108;28;20030;-62
2023/07/06 05:19:32;;;;;;;17.17;5.28;;;;;;;-142.75;100.00;76410.84;5004781;28;20030;-62
2023/07/06 05:21:58;;;;;;;20.05;5.95;;;;;;;-142.75;100.00;76414.78;5005077;28;20101;-62
2023/07/06 05:24:27;;;;;;;20.13;7.15;;;;;;;-142.75;100.00;76414.78;5004953;28;20109;-62
2023/07/06 05:26:53;;;;;;;18.02;7.35;;;;;;;-142.75;100.00;76404.94;5004827;28;20034;-62
2023/07/06 05:29:18;;;;;;;17.10;7.03;;;;;;;-142.75;100.00;76414.78;5006943;28;20044;-62
2023/07/06 05:31:46;;;;;;;18.00;8.40;;;;;;;-142.75;100.00;76408.88;5008542;28;20036;-62
2023/07/06 05:34:11;;;;;;;19.83;7.85;;;;;;;-142.75;100.00;76428.56;5008461;28;20381;-62
2023/07/06 05:36:36;;;;;;;25.48;9.70;;;;;;;-142.75;100.00;76408.88;5008386;28;20057;-62
2023/07/06 05:39:06;;;;;;;20.65;7.63;;;;;;;-142.75;100.00;76385.25;5007956;28;20445;-62
2023/07/06 05:41:32;;;;;;;25.77;9.45;;;;;;;-142.75;100.00;76408.88;5008779;28;20026;-62
2023/07/06 05:43:57;;;;;;;25.08;8.88;;;;;;;-142.75;100.00;76389.19;5008292;28;20029;-62
2023/07/06 05:46:25;;;;;;;24.88;9.35;;;;;;;-142.75;100.00;76365.56;5008643;28;20049;-62
2023/07/06 05:48:51;;;;;;;23.08;8.55;;;;;;;-142.75;100.00;76365.56;5007801;28;20121;-62
2023/07/06 05:51:17;;;;;;;19.70;7.28;;;;;;;-142.75;100.00;76373.44;5008138;28;20025;-62
2023/07/06 05:53:43;;;;;;;18.83;7.80;;;;;;;-142.75;100.00;76353.78;5007796;28;20043;-62
2023/07/06 05:56:09;;;;;;;19.27;8.15;;;;;;;-142.75;100.00;76361.63;5007894;28;20213;-62
2023/07/06 05:58:34;;;;;;;18.63;7.47;;;;;;;-142.75;100.00;76343.94;5008001;28;20060;-62
2023/07/06 06:01:00;;;;;;;19.45;6.93;;;;;;;-142.75;100.00;76338.03;5007849;28;20022;-62
2023/07/06 06:03:25;;;;;;;22.23;8.23;;;;;;;-142.75;100.00;76334.09;5007848;28;20411;-62
2023/07/06 06:05:53;;;;;;;24.38;8.30;;;;;;;-142.75;100.00;76324.25;5007786;28;20028;-62
2023/07/06 06:08:18;;;;;;;20.23;8.70;;;;;;;-142.75;100.00;76320.31;5007533;28;20033;-62
2023/07/06 06:10:44;;;;;;;20.05;7.68;;;;;;;-142.75;100.00;76322.28;5007796;28;20057;-62
2023/07/06 06:13:10;;;;;;;14.35;7.07;;;;;;;-142.75;100.00;76310.47;5007788;28;20079;-62
2023/07/06 06:15:36;;;;;;;18.50;7.10;;;;;;;-142.75;100.00;76296.69;5007815;28;20025;-62
2023/07/06 06:18:03;;;;;;;18.25;7.57;;;;;;;-142.75;100.00;76310.47;5007816;28;20036;-62
2023/07/06 06:20:30;;;;;;;17.42;8.43;;;;;;;-142.75;100.00;76308.50;5007440;28;20085;-62
2023/07/06 06:22:56;;;;;;;17.38;7.07;;;;;;;-142.75;100.00;76304.56;5007275;28;20557;-62
2023/07/06 06:25:22;;;;;;;22.50;7.65;;;;;;;-142.75;100.00;76306.53;5007534;28;20336;-62
2023/07/06 06:27:47;;;;;;;24.17;8.07;;;;;;;-142.75;100.00;76308.50;5007279;28;20490;-62
2023/07/06 06:30:14;;;;;;;15.85;6.95;;;;;;;-142.75;100.00;76318.34;5007670;28;20033;-61
2023/07/06 06:32:41;;;;;;;22.20;7.50;;;;;;;-142.75;100.00;76310.47;5007211;28;20045;-63
2023/07/06 06:35:31;;;;;;;18.63;7.50;;;;;;;-142.75;100.00;76271.09;5007598;28;20113;-63
2023/07/06 06:37:59;;;;;;;17.98;7.95;;;;;;;-142.75;100.00;76310.47;5006814;28;20057;-63
2023/07/06 06:40:27;;;;;;;18.30;7.90;;;;;;;-142.75;100.00;76302.59;5006093;28;20034;-62
2023/07/06 06:42:53;;;;;;;14.13;7.22;;;;;;;-142.75;100.00;76292.75;5007014;28;20021;-63
2023/07/06 06:45:19;;;;;;;19.05;8.02;;;;;;;-142.75;100.00;76302.59;5007240;28;20036;-63
2023/07/06 06:47:45;;;;;;;20.02;8.88;;;;;;;-142.75;100.00;76310.47;5006833;28;20060;-62
2023/07/06 06:50:14;;;;;;;19.48;7.78;;;;;;;-142.75;100.00;76286.84;5006964;28;20065;-65
2023/07/06 06:52:40;;;;;;;15.55;7.75;;;;;;;-142.75;100.00;76292.75;5007164;28;21198;-62
2023/07/06 06:55:06;;;;;;;19.35;8.35;;;;;;;-142.75;100.00;76267.16;5006918;28;20037;-62
2023/07/06 06:57:32;;;;;;;14.98;8.00;;;;;;;-142.75;100.00;76271.09;5007026;28;20028;-62
2023/07/06 06:59:58;;;;;;;14.45;7.53;;;;;;;-142.75;100.00;76255.34;4997427;28;20034;-63
2023/07/06 07:02:23;;;;;;;19.58;9.10;;;;;;;-142.75;100.00;76280.94;4987789;28;20030;-62
2023/07/06 07:04:49;;;;;;;17.30;8.07;;;;;;;-142.75;100.00;76294.72;5003749;28;20232;-62
2023/07/06 07:07:16;;;;;;;12.60;7.68;;;;;;;-142.75;100.00;76300.63;4987299;28;20029;-63
2023/07/06 07:09:46;;;;;;;16.10;6.80;;;;;;;-142.75;100.00;76290.78;4985734;28;20441;-62
2023/07/06 07:12:12;;;;;;;17.00;8.27;;;;;;;-142.75;100.00;76259.28;4984105;28;20030;-63
2023/07/06 07:14:40;;;;;;;18.73;7.13;;;;;;;-142.75;100.00;76229.75;4986321;28;20101;-62
2023/07/06 07:17:07;;;;;;;15.48;7.13;;;;;;;-142.75;100.00;76231.72;4986854;28;20552;-63
2023/07/06 07:19:34;;;;;;;19.73;8.35;;;;;;;-142.75;100.00;76243.53;4986063;28;20065;-63
2023/07/06 07:22:00;;;;;;;17.08;6.78;;;;;;;-142.75;100.00;76273.06;4985472;28;20038;-63
2023/07/06 07:24:26;;;;;;;17.35;6.70;;;;;;;-142.75;100.00;76273.06;4986390;28;20133;-63
2023/07/06 07:26:51;;;;;;;23.13;7.57;;;;;;;-142.75;100.00;76259.28;4985642;28;20117;-63
2023/07/06 07:29:17;;;;;;;13.40;6.03;;;;;;;-142.75;100.00;76259.28;4986562;28;20021;-63
2023/07/06 07:31:43;;;;;;;13.23;6.40;;;;;;;-142.75;100.00;76210.06;4986309;28;20036;-63
2023/07/06 07:34:08;;;;;;;19.70;6.40;;;;;;;-142.75;100.00;76200.25;4986116;28;20038;-63
2023/07/06 07:36:34;;;;;;;13.35;6.15;;;;;;;-142.75;100.00;76198.28;4986346;28;20018;-63
2023/07/06 07:38:59;;;;;;;14.65;6.53;;;;;;;-142.75;100.00;76115.59;4984997;28;20018;-64
2023/07/06 07:41:25;;;;;;;14.13;5.93;;;;;;;-142.75;100.00;76117.56;4986718;28;20694;-64
2023/07/06 07:43:51;;;;;;;17.40;6.72;;;;;;;-142.75;100.00;76184.50;4990260;28;20018;-64
2023/07/06 07:46:19;;;;;;;8.90;4.43;;;;;;;-142.75;100.00;76188.44;4986652;28;20470;-64
2023/07/06 07:48:47;;;;;;;11.68;5.53;;;;;;;-142.75;100.00;76269.13;4983347;28;20092;-65
2023/07/06 07:51:15;;;;;;;11.25;5.00;;;;;;;-142.75;100.00;76302.59;4980982;28;20393;-64
2023/07/06 07:53:41;;;;;;;13.57;5.22;;;;;;;-142.75;100.00;76280.94;4989787;28;20041;-64
2023/07/06 07:56:07;;;;;;;10.48;4.10;;;;;;;-142.75;100.00;76278.97;4990652;28;20029;-64
2023/07/06 07:58:34;;;;;;;10.68;4.65;;;;;;;-142.75;100.00;76286.84;4991671;28;20018;-63
2023/07/06 08:01:01;;;;;;;11.07;4.93;;;;;;;-142.75;100.00;76277.00;4993213;28;20622;-64
2023/07/06 08:03:27;;;;;;;13.23;5.35;;;;;;;-142.75;100.00;76263.22;4986467;28;20674;-64
2023/07/06 08:05:54;;;;;;;16.02;4.63;;;;;;;-142.75;100.00;76229.75;4986425;28;20105;-63
2023/07/06 08:08:22;;;;;;;13.00;4.00;;;;;;;-142.75;100.00;76202.19;4989043;28;20040;-63
2023/07/06 08:10:49;;;;;;;13.15;4.22;;;;;;;-142.75;100.00;76188.44;5005419;28;20030;-64
2023/07/06 08:13:15;;;;;;;9.60;4.18;;;;;;;-142.75;100.00;76145.13;4997834;28;20083;-64
2023/07/06 08:15:41;;;;;;;11.52;4.25;;;;;;;-142.75;100.00;76219.91;4994825;28;20034;-64
2023/07/06 08:18:06;;;;;;;10.65;3.60;;;;;;;-142.75;100.00;76176.63;5002478;28;20109;-63
2023/07/06 08:20:35;;;;;;;9.20;3.50;;;;;;;-142.75;100.00;76188.44;4985122;28;20709;-63
2023/07/06 08:23:02;;;;;;;12.23;4.57;;;;;;;-142.75;100.00;76196.31;4996342;28;20053;-64
2023/07/06 08:25:28;;;;;;;8.23;3.55;;;;;;;-142.75;100.00;76204.16;4983477;28;20022;-64
2023/07/06 08:27:57;;;;;;;8.25;3.00;;;;;;;-142.75;100.00;76198.28;4988299;28;20030;-64
2023/07/06 08:30:23;;;;;;;7.65;3.33;;;;;;;-142.75;100.00;76206.13;4984563;28;20038;-64
2023/07/06 08:32:51;;;;;;;9.00;2.90;;;;;;;-142.75;100.00;76229.75;4985461;28;20409;-63
2023/07/06 08:35:17;;;;;;;7.90;3.25;;;;;;;-142.75;100.00;76180.56;4985890;28;20062;-63
2023/07/06 08:37:44;;;;;;;7.18;2.90;;;;;;;-142.75;100.00;76186.47;4994568;28;20057;-63
2023/07/06 08:40:17;;;;;;;8.38;2.95;;;;;;;-142.75;100.00;76186.47;4986507;28;20022;-63
2023/07/06 08:42:45;;;;;;;6.95;2.47;;;;;;;-142.75;100.00;76231.72;4990303;28;20030;-63
2023/07/06 08:45:19;;;;;;;8.73;2.50;;;;;;;-142.75;100.00;76229.75;4990360;28;20061;-64
2023/07/06 08:47:47;;;;;;;10.07;2.70;;;;;;;-142.75;100.00;76237.63;4989357;28;20027;-63
2023/07/06 08:50:15;;;;;;;7.47;2.38;;;;;;;-142.75;100.00;76290.78;4986416;28;20073;-64
2023/07/06 08:52:42;;;;;;;4.95;2.20;;;;;;;-142.75;100.00;76286.84;4994007;28;20022;-63
2023/07/06 08:55:16;;;;;;;4.75;1.88;;;;;;;-142.75;100.00;76286.84;5003891;28;20026;-64
2023/07/06 08:57:45;;;;;;;4.28;1.58;;;;;;;-142.75;100.00;76341.97;4987508;28;20034;-63
2023/07/06 09:00:25;;;;;;;4.53;1.23;;;;;;;-142.75;100.00;76320.31;4993262;28;20061;-63
2023/07/06 09:02:55;;;;;;;7.93;1.80;;;;;;;-142.75;100.00;76330.16;4992267;28;20105;-63
2023/07/06 09:05:21;;;;;;;5.68;1.50;;;;;;;-142.75;100.00;76338.03;5000018;28;20026;-63
2023/07/06 09:07:48;;;;;;;5.32;1.70;;;;;;;-142.75;100.00;76334.09;4997944;28;20030;-63
2023/07/06 09:10:26;;;;;;;4.50;1.70;;;;;;;-142.75;100.00;76318.34;4996990;28;20505;-64
2023/07/06 09:12:53;;;;;;;6.00;1.92;;;;;;;-142.75;100.00;76316.38;4996415;28;20480;-64
2023/07/06 09:15:26;;;;;;;10.98;2.78;;;;;;;-142.75;100.00;76334.09;4987289;28;20481;-63
2023/07/06 09:17:51;;;;;;;8.20;2.25;;;;;;;-142.75;100.00;76371.47;4992944;28;20413;-63
2023/07/06 09:20:19;;;;;;;6.50;1.70;;;;;;;-142.75;100.00;76365.56;5008002;28;20033;-64
2023/07/06 09:22:46;;;;;;;5.30;1.70;;;;;;;-142.75;100.00;76367.53;4991833;28;20026;-63
2023/07/06 09:25:15;;;;;;;5.18;2.20;;;;;;;-142.75;100.00;76363.59;4988618;28;20023;-64
2023/07/06 09:27:46;;;;;;;4.97;1.42;;;;;;;-142.75;100.00;76326.22;4988106;28;20601;-63
2023/07/06 09:30:29;;;;;;;5.80;1.48;;;;;;;-142.75;100.00;76322.28;4988945;28;20030;-63
2023/07/06 09:33:00;;;;;;;5.93;1.65;;;;;;;-142.75;100.00;76320.31;4988617;28;20434;-63
2023/07/06 09:35:29;;;;;;;7.00;1.65;;;;;;;-142.75;100.00;76284.88;4988322;28;20033;-64
2023/07/06 09:37:54;;;;;;;3.63;1.63;;;;;;;-142.75;100.00;76302.59;4990599;28;20416;-63
2023/07/06 09:40:29;;;;;;;7.32;2.00;;;;;;;-142.75;100.00;76294.72;4994351;28;20027;-63
2023/07/06 09:42:54;;;;;;;3.67;1.55;;;;;;;-142.75;100.00;76326.22;4991609;28;20443;-63
2023/07/06 09:45:26;;;;;;;4.70;1.42;;;;;;;-142.75;100.00;76340.00;5007869;28;20022;-63
2023/07/06 09:48:05;;;;;;;3.70;1.70;;;;;;;-142.75;100.00;76326.22;5007940;28;20040;-63
2023/07/06 09:50:44;;;;;;;3.38;1.10;;;;;;;-142.75;100.00;76353.78;5022949;28;20064;-62
2023/07/06 09:53:19;;;;;;;8.55;1.38;;;;;;;-142.75;100.00;76404.94;4999913;28;20076;-63
2023/07/06 09:55:44;;;;;;;7.80;1.27;;;;;;;-142.75;100.00;76393.13;5008034;28;20021;-63
2023/07/06 09:58:19;;;;;;;8.05;1.10;;;;;;;-142.75;100.00;76391.16;5006170;28;20083;-63
2023/07/06 10:00:52;;;;;;;5.07;1.05;;;;;;;-142.75;100.00;76393.13;4999840;28;20377;-63
2023/07/06 10:03:55;;;;;;;4.60;0.90;;;;;;;-142.75;100.00;76393.13;5004206;28;20565;-63
2023/07/06 10:06:49;;;;;;;3.63;1.17;;;;;;;-142.75;100.00;76373.44;4988598;28;20411;-62
2023/07/06 10:09:21;;;;;;;3.45;0.80;;;;;;;-142.75;100.00;76353.78;4997925;28;20049;-63
2023/07/06 10:11:53;;;;;;;2.45;0.77;;;;;;;-142.75;100.00;76338.03;5007719;28;20025;-63
2023/07/06 10:14:38;;;;;;;5.85;0.90;;;;;;;-142.75;100.00;76310.47;4988173;28;20616;-63
2023/07/06 10:17:27;;;;;;;2.45;1.10;;;;;;;-142.75;100.00;76282.91;4998357;28;20038;-63
2023/07/06 10:20:17;;;;;;;3.50;0.70;;;;;;;-142.75;100.00;76277.00;4994889;28;20088;-62
2023/07/06 10:23:09;;;;;;;2.97;0.98;;;;;;;-142.75;100.00;76215.97;5000985;28;20026;-62
2023/07/06 10:25:50;;;;;;;1.65;0.60;;;;;;;-142.75;100.00;76186.47;5007626;28;20030;-62
2023/07/06 10:28:51;;;;;;;2.08;1.00;;;;;;;-142.75;100.00;76156.94;5007239;28;20054;-62
2023/07/06 10:31:19;;;;;;;2.97;0.68;;;;;;;-142.75;100.00;76149.06;4966694;28;20117;-62
2023/07/06 10:33:57;;;;;;;5.68;0.82;;;;;;;-142.75;100.00;76086.06;4988024;28;20030;-62
2023/07/06 10:36:29;;;;;;;1.95;0.60;;;;;;;-142.75;100.00;76044.75;4987382;28;20034;-62
2023/07/06 10:38:55;;;;;;;1.52;0.60;;;;;;;-142.75;100.00;76019.16;5003824;28;20018;-63
2023/07/06 10:41:29;;;;;;;1.63;0.68;;;;;;;-142.75;100.00;75967.97;4987499;28;20113;-64
2023/07/06 10:43:56;;;;;;;1.17;0.40;;;;;;;-142.75;100.00;76001.44;4987716;28;20026;-64
2023/07/06 10:46:28;;;;;;;2.15;0.70;;;;;;;-142.75;98.55;76017.19;4987645;28;20019;-64
2023/07/06 10:49:12;;;;;;;3.20;0.70;;;;;;;-142.75;100.00;75997.50;4987565;28;20065;-64
2023/07/06 10:52:03;;;;;;;3.60;0.82;;;;;;;-142.75;92.29;75975.84;4995853;28;20026;-64
2023/07/06 10:54:32;;;;;;;3.92;0.73;;;;;;;-142.75;94.21;75956.19;5003284;28;20547;-64
2023/07/06 10:57:10;;;;;;;1.80;0.70;;;;;;;-142.75;94.50;75926.66;5002483;28;20054;-64
2023/07/06 10:59:43;;;;;;;1.92;0.73;;;;;;;-142.75;91.54;75938.47;4986605;28;20061;-64
2023/07/06 11:02:24;;;;;;;5.25;1.08;;;;;;;-142.75;89.24;75922.72;4987315;28;20028;-64
2023/07/06 11:04:54;;;;;;;1.85;0.70;;;;;;;-142.75;88.83;75905.00;4994603;28;20041;-64
2023/07/06 11:07:35;;;;;;;2.00;0.75;;;;;;;-142.75;85.98;75897.13;4988108;28;20176;-64
2023/07/06 11:10:13;;;;;;;2.88;0.70;;;;;;;-142.75;89.90;75871.53;4989542;28;20033;-64
2023/07/06 11:13:04;;;;;;;1.10;0.60;;;;;;;-142.75;86.29;75879.41;4991042;28;20100;-64
2023/07/06 11:15:35;;;;;;;1.23;0.50;;;;;;;-142.75;80.39;75960.13;4993357;28;20034;-64
2023/07/06 11:18:12;;;;;;;2.47;0.43;;;;;;;-142.75;86.97;75920.75;4989065;28;20030;-65